sensor_id;sensor_type;location;lat;lon;timestamp;temperature;humidity
56512;DHT22;42408;53.238;5.686;2023-04-16T00:00:45;8.40;99.90
56512;DHT22;42408;53.238;5.686;2023-04-16T00:03:13;8.40;99.90
56512;DHT22;42408;53.238;5.686;2023-04-16T00:05:38;8.40;99.90
56512;DHT22;42408;53.238;5.686;2023-04-16T00:08:04;8.40;99.90
56512;DHT22;42408;53.238;5.686;2023-04-16T00:10:30;8.50;99.90
56512;DHT22;42408;53.238;5.686;2023-04-16T00:12:56;8.40;99.90
56512;DHT22;42408;53.238;5.686;2023-04-16T00:15:21;8.50;99.90
56512;DHT22;42408;53.238;5.686;2023-04-16T00:17:47;8.40;99.90
56512;DHT22;42408;53.238;5.686;2023-04-16T00:20:13;8.40;99.90
56512;DHT22;42408;53.238;5.686;2023-04-16T00:22:38;8.40;99.90
56512;DHT22;42408;53.238;5.686;2023-04-16T00:25:04;8.40;99.90
56512;DHT22;42408;53.238;5.686;2023-04-16T00:27:30;8.40;99.90
56512;DHT22;42408;53.238;5.686;2023-04-16T00:29:56;8.40;99.90
56512;DHT22;42408;53.238;5.686;2023-04-16T00:32:21;8.50;99.90
56512;DHT22;42408;53.238;5.686;2023-04-16T00:34:47;8.50;99.90
56512;DHT22;42408;53.238;5.686;2023-04-16T00:37:13;8.50;99.90
56512;DHT22;42408;53.238;5.686;2023-04-16T00:39:38;8.50;99.90
56512;DHT22;42408;53.238;5.686;2023-04-16T00:42:04;8.40;99.90
56512;DHT22;42408;53.238;5.686;2023-04-16T00:44:29;8.40;99.90
56512;DHT22;42408;53.238;5.686;2023-04-16T00:46:56;8.40;99.90
56512;DHT22;42408;53.238;5.686;2023-04-16T00:49:22;8.40;99.90
56512;DHT22;42408;53.238;5.686;2023-04-16T00:51:48;8.40;99.90
56512;DHT22;42408;53.238;5.686;2023-04-16T00:54:14;8.40;99.90
56512;DHT22;42408;53.238;5.686;2023-04-16T00:56:40;8.40;99.90
56512;DHT22;42408;53.238;5.686;2023-04-16T00:59:07;8.40;99.90
56512;DHT22;42408;53.238;5.686;2023-04-16T01:01:33;8.40;99.90
56512;DHT22;42408;53.238;5.686;2023-04-16T01:03:58;8.40;99.90
56512;DHT22;42408;53.238;5.686;2023-04-16T01:06:24;8.40;99.90
56512;DHT22;42408;53.238;5.686;2023-04-16T01:08:51;8.40;99.90
56512;DHT22;42408;53.238;5.686;2023-04-16T01:11:17;8.50;99.90
56512;DHT22;42408;53.238;5.686;2023-04-16T01:13:42;8.40;99.90
56512;DHT22;42408;53.238;5.686;2023-04-16T01:16:10;8.50;99.90
56512;DHT22;42408;53.238;5.686;2023-04-16T01:18:36;8.50;99.90
56512;DHT22;42408;53.238;5.686;2023-04-16T01:21:03;8.50;99.90
56512;DHT22;42408;53.238;5.686;2023-04-16T01:23:29;8.50;99.90
56512;DHT22;42408;53.238;5.686;2023-04-16T01:25:55;8.50;99.90
56512;DHT22;42408;53.238;5.686;2023-04-16T01:28:21;8.40;99.90
56512;DHT22;42408;53.238;5.686;2023-04-16T01:30:46;8.50;99.90
56512;DHT22;42408;53.238;5.686;2023-04-16T01:33:13;8.50;99.90
56512;DHT22;42408;53.238;5.686;2023-04-16T01:35:39;8.40;99.90
56512;DHT22;42408;53.238;5.686;2023-04-16T01:38:06;8.50;99.90
56512;DHT22;42408;53.238;5.686;2023-04-16T01:40:36;8.50;99.90
56512;DHT22;42408;53.238;5.686;2023-04-16T01:43:02;8.50;99.90
56512;DHT22;42408;53.238;5.686;2023-04-16T01:45:29;8.40;99.90
56512;DHT22;42408;53.238;5.686;2023-04-16T01:47:55;8.40;99.90
56512;DHT22;42408;53.238;5.686;2023-04-16T01:50:21;8.40;99.90
56512;DHT22;42408;53.238;5.686;2023-04-16T01:52:47;8.40;99.90
56512;DHT22;42408;53.238;5.686;2023-04-16T01:55:13;8.50;99.90
56512;DHT22;42408;53.238;5.686;2023-04-16T01:57:39;8.40;99.90
56512;DHT22;42408;53.238;5.686;2023-04-16T02:00:05;8.40;99.90
56512;DHT22;42408;53.238;5.686;2023-04-16T02:02:33;8.40;99.90
56512;DHT22;42408;53.238;5.686;2023-04-16T02:04:59;8.40;99.90
56512;DHT22;42408;53.238;5.686;2023-04-16T02:07:25;8.40;99.90
56512;DHT22;42408;53.238;5.686;2023-04-16T02:09:52;8.40;99.90
56512;DHT22;42408;53.238;5.686;2023-04-16T02:12:18;8.40;99.90
56512;DHT22;42408;53.238;5.686;2023-04-16T02:14:44;8.40;99.90
56512;DHT22;42408;53.238;5.686;2023-04-16T02:17:09;8.40;99.90
56512;DHT22;42408;53.238;5.686;2023-04-16T02:19:35;8.40;99.90
56512;DHT22;42408;53.238;5.686;2023-04-16T02:22:01;8.40;99.90
56512;DHT22;42408;53.238;5.686;2023-04-16T02:24:27;8.50;99.90
56512;DHT22;42408;53.238;5.686;2023-04-16T02:26:53;8.40;99.90
56512;DHT22;42408;53.238;5.686;2023-04-16T02:29:19;8.50;99.90
56512;DHT22;42408;53.238;5.686;2023-04-16T02:31:45;8.50;99.90
56512;DHT22;42408;53.238;5.686;2023-04-16T02:34:11;8.50;99.90
56512;DHT22;42408;53.238;5.686;2023-04-16T02:36:37;8.50;99.90
56512;DHT22;42408;53.238;5.686;2023-04-16T02:39:03;8.40;99.90
56512;DHT22;42408;53.238;5.686;2023-04-16T02:41:29;8.40;99.90
56512;DHT22;42408;53.238;5.686;2023-04-16T02:43:55;8.40;99.90
56512;DHT22;42408;53.238;5.686;2023-04-16T02:46:21;8.40;99.90
56512;DHT22;42408;53.238;5.686;2023-04-16T02:48:46;8.40;99.90
56512;DHT22;42408;53.238;5.686;2023-04-16T02:51:12;8.50;99.90
56512;DHT22;42408;53.238;5.686;2023-04-16T02:53:38;8.50;99.90
56512;DHT22;42408;53.238;5.686;2023-04-16T02:56:04;8.40;99.90
56512;DHT22;42408;53.238;5.686;2023-04-16T02:58:30;8.50;99.90
56512;DHT22;42408;53.238;5.686;2023-04-16T03:00:55;8.50;99.90
56512;DHT22;42408;53.238;5.686;2023-04-16T03:03:21;8.50;99.90
56512;DHT22;42408;53.238;5.686;2023-04-16T03:05:47;8.50;99.90
56512;DHT22;42408;53.238;5.686;2023-04-16T03:08:13;8.50;99.90
56512;DHT22;42408;53.238;5.686;2023-04-16T03:10:38;8.50;99.90
56512;DHT22;42408;53.238;5.686;2023-04-16T03:13:06;8.50;99.90
56512;DHT22;42408;53.238;5.686;2023-04-16T03:15:32;8.50;99.90
56512;DHT22;42408;53.238;5.686;2023-04-16T03:17:58;8.50;99.90
56512;DHT22;42408;53.238;5.686;2023-04-16T03:20:23;8.50;99.90
56512;DHT22;42408;53.238;5.686;2023-04-16T03:22:50;8.60;99.90
56512;DHT22;42408;53.238;5.686;2023-04-16T03:25:16;8.50;99.90
56512;DHT22;42408;53.238;5.686;2023-04-16T03:27:42;8.50;99.90
56512;DHT22;42408;53.238;5.686;2023-04-16T03:30:10;8.60;99.90
56512;DHT22;42408;53.238;5.686;2023-04-16T03:32:36;8.50;99.90
56512;DHT22;42408;53.238;5.686;2023-04-16T03:35:03;8.50;99.90
56512;DHT22;42408;53.238;5.686;2023-04-16T03:37:29;8.50;99.90
56512;DHT22;42408;53.238;5.686;2023-04-16T03:39:55;8.60;99.90
56512;DHT22;42408;53.238;5.686;2023-04-16T03:42:20;8.50;99.90
56512;DHT22;42408;53.238;5.686;2023-04-16T03:44:46;8.50;99.90
56512;DHT22;42408;53.238;5.686;2023-04-16T03:47:12;8.60;99.90
56512;DHT22;42408;53.238;5.686;2023-04-16T03:49:37;8.60;99.90
56512;DHT22;42408;53.238;5.686;2023-04-16T03:52:03;8.60;99.90
56512;DHT22;42408;53.238;5.686;2023-04-16T03:54:29;8.60;99.90
56512;DHT22;42408;53.238;5.686;2023-04-16T03:56:54;8.60;99.90
56512;DHT22;42408;53.238;5.686;2023-04-16T03:59:21;8.60;99.90
56512;DHT22;42408;53.238;5.686;2023-04-16T04:01:47;8.60;99.90
56512;DHT22;42408;53.238;5.686;2023-04-16T04:04:12;8.60;99.90
56512;DHT22;42408;53.238;5.686;2023-04-16T04:06:38;8.60;99.90
56512;DHT22;42408;53.238;5.686;2023-04-16T04:09:04;8.60;99.90
56512;DHT22;42408;53.238;5.686;2023-04-16T04:11:30;8.60;99.90
56512;DHT22;42408;53.238;5.686;2023-04-16T04:13:55;8.60;99.90
56512;DHT22;42408;53.238;5.686;2023-04-16T04:16:21;8.60;99.90
56512;DHT22;42408;53.238;5.686;2023-04-16T04:18:47;8.60;99.90
56512;DHT22;42408;53.238;5.686;2023-04-16T04:21:12;8.60;99.90
56512;DHT22;42408;53.238;5.686;2023-04-16T04:23:38;8.60;99.90
56512;DHT22;42408;53.238;5.686;2023-04-16T04:26:06;8.60;99.90
56512;DHT22;42408;53.238;5.686;2023-04-16T04:28:32;8.60;99.90
56512;DHT22;42408;53.238;5.686;2023-04-16T04:30:58;8.60;99.90
56512;DHT22;42408;53.238;5.686;2023-04-16T04:33:25;8.60;99.90
56512;DHT22;42408;53.238;5.686;2023-04-16T04:35:51;8.60;99.90
56512;DHT22;42408;53.238;5.686;2023-04-16T04:38:17;8.60;99.90
56512;DHT22;42408;53.238;5.686;2023-04-16T04:40:47;8.60;99.90
56512;DHT22;42408;53.238;5.686;2023-04-16T04:43:13;8.60;99.90
56512;DHT22;42408;53.238;5.686;2023-04-16T04:45:39;8.60;99.90
56512;DHT22;42408;53.238;5.686;2023-04-16T04:48:05;8.60;99.90
56512;DHT22;42408;53.238;5.686;2023-04-16T04:50:31;8.70;99.90
56512;DHT22;42408;53.238;5.686;2023-04-16T04:52:56;8.60;99.90
56512;DHT22;42408;53.238;5.686;2023-04-16T04:55:22;8.60;99.90
56512;DHT22;42408;53.238;5.686;2023-04-16T04:57:48;8.60;99.90
56512;DHT22;42408;53.238;5.686;2023-04-16T05:00:14;8.60;99.90
56512;DHT22;42408;53.238;5.686;2023-04-16T05:02:40;8.60;99.90
56512;DHT22;42408;53.238;5.686;2023-04-16T05:05:06;8.60;99.90
56512;DHT22;42408;53.238;5.686;2023-04-16T05:07:32;8.60;99.90
56512;DHT22;42408;53.238;5.686;2023-04-16T05:09:57;8.60;99.90
56512;DHT22;42408;53.238;5.686;2023-04-16T05:12:23;8.60;99.90
56512;DHT22;42408;53.238;5.686;2023-04-16T05:14:48;8.60;99.90
56512;DHT22;42408;53.238;5.686;2023-04-16T05:17:14;8.60;99.90
56512;DHT22;42408;53.238;5.686;2023-04-16T05:19:40;8.50;99.90
56512;DHT22;42408;53.238;5.686;2023-04-16T05:22:05;8.60;99.90
56512;DHT22;42408;53.238;5.686;2023-04-16T05:24:31;8.60;99.90
56512;DHT22;42408;53.238;5.686;2023-04-16T05:26:57;8.60;99.90
56512;DHT22;42408;53.238;5.686;2023-04-16T05:29:22;8.60;99.90
56512;DHT22;42408;53.238;5.686;2023-04-16T05:31:48;8.60;99.90
56512;DHT22;42408;53.238;5.686;2023-04-16T05:34:14;8.60;99.90
56512;DHT22;42408;53.238;5.686;2023-04-16T05:36:39;8.60;99.90
56512;DHT22;42408;53.238;5.686;2023-04-16T05:39:05;8.60;99.90
56512;DHT22;42408;53.238;5.686;2023-04-16T05:41:32;8.60;99.90
56512;DHT22;42408;53.238;5.686;2023-04-16T05:43:58;8.60;99.90
56512;DHT22;42408;53.238;5.686;2023-04-16T05:46:24;8.60;99.90
56512;DHT22;42408;53.238;5.686;2023-04-16T05:48:50;8.60;99.90
56512;DHT22;42408;53.238;5.686;2023-04-16T05:51:16;8.60;99.90
56512;DHT22;42408;53.238;5.686;2023-04-16T05:53:41;8.60;99.90
56512;DHT22;42408;53.238;5.686;2023-04-16T05:56:07;8.60;99.90
56512;DHT22;42408;53.238;5.686;2023-04-16T05:58:33;8.60;99.90
56512;DHT22;42408;53.238;5.686;2023-04-16T06:00:59;8.60;99.90
56512;DHT22;42408;53.238;5.686;2023-04-16T06:03:25;8.60;99.90
56512;DHT22;42408;53.238;5.686;2023-04-16T06:05:51;8.60;99.90
56512;DHT22;42408;53.238;5.686;2023-04-16T06:08:16;8.60;99.90
56512;DHT22;42408;53.238;5.686;2023-04-16T06:10:42;8.60;99.90
56512;DHT22;42408;53.238;5.686;2023-04-16T06:13:09;8.60;99.90
56512;DHT22;42408;53.238;5.686;2023-04-16T06:15:35;8.60;99.90
56512;DHT22;42408;53.238;5.686;2023-04-16T06:18:01;8.60;99.90
56512;DHT22;42408;53.238;5.686;2023-04-16T06:20:26;8.70;99.90
56512;DHT22;42408;53.238;5.686;2023-04-16T06:22:52;8.70;99.90
56512;DHT22;42408;53.238;5.686;2023-04-16T06:25:18;8.70;99.90
56512;DHT22;42408;53.238;5.686;2023-04-16T06:27:43;8.70;99.90
56512;DHT22;42408;53.238;5.686;2023-04-16T06:30:14;8.70;99.90
56512;DHT22;42408;53.238;5.686;2023-04-16T06:32:41;8.70;99.90
56512;DHT22;42408;53.238;5.686;2023-04-16T06:35:07;8.70;99.90
56512;DHT22;42408;53.238;5.686;2023-04-16T06:37:32;8.70;99.90
56512;DHT22;42408;53.238;5.686;2023-04-16T06:39:58;8.80;99.90
56512;DHT22;42408;53.238;5.686;2023-04-16T06:42:24;8.70;99.90
56512;DHT22;42408;53.238;5.686;2023-04-16T06:44:49;8.80;99.90
56512;DHT22;42408;53.238;5.686;2023-04-16T06:47:15;8.80;99.90
56512;DHT22;42408;53.238;5.686;2023-04-16T06:49:41;8.80;99.90
56512;DHT22;42408;53.238;5.686;2023-04-16T06:52:06;8.70;99.90
56512;DHT22;42408;53.238;5.686;2023-04-16T06:54:32;8.80;99.90
56512;DHT22;42408;53.238;5.686;2023-04-16T06:56:58;8.70;99.90
56512;DHT22;42408;53.238;5.686;2023-04-16T06:59:24;8.80;99.90
56512;DHT22;42408;53.238;5.686;2023-04-16T07:01:50;8.80;99.90
56512;DHT22;42408;53.238;5.686;2023-04-16T07:04:16;8.70;99.90
56512;DHT22;42408;53.238;5.686;2023-04-16T07:06:42;8.80;99.90
56512;DHT22;42408;53.238;5.686;2023-04-16T07:09:08;8.80;99.90
56512;DHT22;42408;53.238;5.686;2023-04-16T07:11:34;8.80;99.90
56512;DHT22;42408;53.238;5.686;2023-04-16T07:14:00;8.80;99.90
56512;DHT22;42408;53.238;5.686;2023-04-16T07:16:25;8.80;99.90
56512;DHT22;42408;53.238;5.686;2023-04-16T07:18:51;8.80;99.90
56512;DHT22;42408;53.238;5.686;2023-04-16T07:21:17;8.80;99.90
56512;DHT22;42408;53.238;5.686;2023-04-16T07:23:42;8.80;99.90
56512;DHT22;42408;53.238;5.686;2023-04-16T07:26:08;8.80;99.90
56512;DHT22;42408;53.238;5.686;2023-04-16T07:28:34;8.90;99.90
56512;DHT22;42408;53.238;5.686;2023-04-16T07:31:00;8.90;99.90
56512;DHT22;42408;53.238;5.686;2023-04-16T07:33:26;8.90;99.90
56512;DHT22;42408;53.238;5.686;2023-04-16T07:35:51;8.90;99.90
56512;DHT22;42408;53.238;5.686;2023-04-16T07:38:17;8.90;99.90
56512;DHT22;42408;53.238;5.686;2023-04-16T07:40:43;9.00;99.90
56512;DHT22;42408;53.238;5.686;2023-04-16T07:43:08;8.90;99.90
56512;DHT22;42408;53.238;5.686;2023-04-16T07:45:35;8.90;99.90
56512;DHT22;42408;53.238;5.686;2023-04-16T07:48:00;8.90;99.90
56512;DHT22;42408;53.238;5.686;2023-04-16T07:50:26;8.90;99.90
56512;DHT22;42408;53.238;5.686;2023-04-16T07:52:52;8.90;99.90
56512;DHT22;42408;53.238;5.686;2023-04-16T07:55:18;8.90;99.90
56512;DHT22;42408;53.238;5.686;2023-04-16T07:57:44;8.90;99.90
56512;DHT22;42408;53.238;5.686;2023-04-16T08:00:10;8.90;99.90
56512;DHT22;42408;53.238;5.686;2023-04-16T08:02:36;8.90;99.90
56512;DHT22;42408;53.238;5.686;2023-04-16T08:05:02;9.00;99.90
56512;DHT22;42408;53.238;5.686;2023-04-16T08:07:27;9.00;99.90
56512;DHT22;42408;53.238;5.686;2023-04-16T08:09:53;9.00;99.90
56512;DHT22;42408;53.238;5.686;2023-04-16T08:12:19;9.10;99.90
56512;DHT22;42408;53.238;5.686;2023-04-16T08:14:46;9.00;99.90
56512;DHT22;42408;53.238;5.686;2023-04-16T08:17:12;9.10;99.90
56512;DHT22;42408;53.238;5.686;2023-04-16T08:19:38;9.10;99.90
56512;DHT22;42408;53.238;5.686;2023-04-16T08:22:03;9.10;99.90
56512;DHT22;42408;53.238;5.686;2023-04-16T08:24:29;9.10;99.90
56512;DHT22;42408;53.238;5.686;2023-04-16T08:26:55;9.10;99.90
56512;DHT22;42408;53.238;5.686;2023-04-16T08:29:21;9.10;99.90
56512;DHT22;42408;53.238;5.686;2023-04-16T08:31:49;9.20;99.90
56512;DHT22;42408;53.238;5.686;2023-04-16T08:34:15;9.20;99.90
56512;DHT22;42408;53.238;5.686;2023-04-16T08:36:41;9.20;99.90
56512;DHT22;42408;53.238;5.686;2023-04-16T08:39:06;9.20;99.90
56512;DHT22;42408;53.238;5.686;2023-04-16T08:41:35;9.30;99.90
56512;DHT22;42408;53.238;5.686;2023-04-16T08:44:10;9.30;99.90
56512;DHT22;42408;53.238;5.686;2023-04-16T08:46:37;9.40;99.90
56512;DHT22;42408;53.238;5.686;2023-04-16T08:49:07;9.40;99.90
56512;DHT22;42408;53.238;5.686;2023-04-16T08:51:33;9.40;99.90
56512;DHT22;42408;53.238;5.686;2023-04-16T08:54:04;9.50;99.90
56512;DHT22;42408;53.238;5.686;2023-04-16T08:56:35;9.50;99.90
56512;DHT22;42408;53.238;5.686;2023-04-16T08:59:02;9.50;99.90
56512;DHT22;42408;53.238;5.686;2023-04-16T09:01:31;9.50;99.90
56512;DHT22;42408;53.238;5.686;2023-04-16T09:03:58;9.50;99.90
56512;DHT22;42408;53.238;5.686;2023-04-16T09:06:26;9.50;99.90
56512;DHT22;42408;53.238;5.686;2023-04-16T09:08:52;9.60;99.90
56512;DHT22;42408;53.238;5.686;2023-04-16T09:11:18;9.50;99.90
56512;DHT22;42408;53.238;5.686;2023-04-16T09:13:45;9.60;99.90
56512;DHT22;42408;53.238;5.686;2023-04-16T09:16:12;9.60;99.90
56512;DHT22;42408;53.238;5.686;2023-04-16T09:18:38;9.60;99.90
56512;DHT22;42408;53.238;5.686;2023-04-16T09:21:04;9.70;99.90
56512;DHT22;42408;53.238;5.686;2023-04-16T09:23:29;9.70;99.90
56512;DHT22;42408;53.238;5.686;2023-04-16T09:25:58;9.80;99.90
56512;DHT22;42408;53.238;5.686;2023-04-16T09:28:40;9.80;99.90
56512;DHT22;42408;53.238;5.686;2023-04-16T09:31:09;9.90;99.90
56512;DHT22;42408;53.238;5.686;2023-04-16T09:33:35;10.50;99.90
56512;DHT22;42408;53.238;5.686;2023-04-16T09:36:01;10.00;99.90
56512;DHT22;42408;53.238;5.686;2023-04-16T09:38:45;10.10;99.90
56512;DHT22;42408;53.238;5.686;2023-04-16T09:41:11;10.10;99.90
56512;DHT22;42408;53.238;5.686;2023-04-16T09:43:38;10.20;99.90
56512;DHT22;42408;53.238;5.686;2023-04-16T09:46:03;10.20;99.90
56512;DHT22;42408;53.238;5.686;2023-04-16T09:48:31;10.30;99.90
56512;DHT22;42408;53.238;5.686;2023-04-16T09:50:57;10.40;99.90
56512;DHT22;42408;53.238;5.686;2023-04-16T09:53:28;10.40;99.90
56512;DHT22;42408;53.238;5.686;2023-04-16T09:55:58;10.40;99.90
56512;DHT22;42408;53.238;5.686;2023-04-16T09:58:25;10.50;99.90
56512;DHT22;42408;53.238;5.686;2023-04-16T10:01:07;10.50;99.90
56512;DHT22;42408;53.238;5.686;2023-04-16T10:03:34;10.60;99.90
56512;DHT22;42408;53.238;5.686;2023-04-16T10:06:15;10.50;99.90
56512;DHT22;42408;53.238;5.686;2023-04-16T10:08:53;10.50;99.90
56512;DHT22;42408;53.238;5.686;2023-04-16T10:11:21;10.50;99.90
56512;DHT22;42408;53.238;5.686;2023-04-16T10:13:47;10.40;99.90
56512;DHT22;42408;53.238;5.686;2023-04-16T10:16:13;10.40;99.90
56512;DHT22;42408;53.238;5.686;2023-04-16T10:18:40;10.50;99.90
56512;DHT22;42408;53.238;5.686;2023-04-16T10:21:06;10.40;99.90
56512;DHT22;42408;53.238;5.686;2023-04-16T10:23:33;10.40;99.90
56512;DHT22;42408;53.238;5.686;2023-04-16T10:25:59;10.40;99.90
56512;DHT22;42408;53.238;5.686;2023-04-16T10:28:25;10.40;99.90
56512;DHT22;42408;53.238;5.686;2023-04-16T10:30:55;10.40;99.90
56512;DHT22;42408;53.238;5.686;2023-04-16T10:33:24;10.40;99.90
56512;DHT22;42408;53.238;5.686;2023-04-16T10:35:52;10.40;99.90
56512;DHT22;42408;53.238;5.686;2023-04-16T10:38:21;10.40;99.90
56512;DHT22;42408;53.238;5.686;2023-04-16T10:40:48;10.30;99.90
56512;DHT22;42408;53.238;5.686;2023-04-16T10:43:17;10.50;99.90
56512;DHT22;42408;53.238;5.686;2023-04-16T10:45:43;10.40;99.90
56512;DHT22;42408;53.238;5.686;2023-04-16T10:48:09;10.40;99.90
56512;DHT22;42408;53.238;5.686;2023-04-16T10:50:36;10.50;99.90
56512;DHT22;42408;53.238;5.686;2023-04-16T10:53:23;10.60;99.90
56512;DHT22;42408;53.238;5.686;2023-04-16T10:58:34;10.70;99.90
56512;DHT22;42408;53.238;5.686;2023-04-16T11:01:05;10.70;99.90
56512;DHT22;42408;53.238;5.686;2023-04-16T11:03:30;10.80;99.90
56512;DHT22;42408;53.238;5.686;2023-04-16T11:08:39;10.80;99.90
56512;DHT22;42408;53.238;5.686;2023-04-16T11:11:05;10.80;99.90
56512;DHT22;42408;53.238;5.686;2023-04-16T11:13:31;10.80;99.90
56512;DHT22;42408;53.238;5.686;2023-04-16T11:15:57;10.80;99.90
56512;DHT22;42408;53.238;5.686;2023-04-16T11:18:25;10.90;99.90
56512;DHT22;42408;53.238;5.686;2023-04-16T11:20:50;11.00;99.90
56512;DHT22;42408;53.238;5.686;2023-04-16T11:23:16;11.00;99.90
56512;DHT22;42408;53.238;5.686;2023-04-16T11:25:42;11.00;99.90
56512;DHT22;42408;53.238;5.686;2023-04-16T11:28:07;11.00;99.90
56512;DHT22;42408;53.238;5.686;2023-04-16T11:30:34;11.00;99.90
56512;DHT22;42408;53.238;5.686;2023-04-16T11:33:04;11.00;99.90
56512;DHT22;42408;53.238;5.686;2023-04-16T11:35:32;11.10;99.90
56512;DHT22;42408;53.238;5.686;2023-04-16T11:37:57;11.10;99.90
56512;DHT22;42408;53.238;5.686;2023-04-16T11:40:24;11.10;99.90
56512;DHT22;42408;53.238;5.686;2023-04-16T11:42:50;11.20;99.90
56512;DHT22;42408;53.238;5.686;2023-04-16T11:45:15;11.10;99.90
56512;DHT22;42408;53.238;5.686;2023-04-16T11:47:46;11.10;99.90
56512;DHT22;42408;53.238;5.686;2023-04-16T11:50:23;11.00;99.90
56512;DHT22;42408;53.238;5.686;2023-04-16T11:52:50;11.00;99.90
56512;DHT22;42408;53.238;5.686;2023-04-16T11:55:16;11.00;99.90
56512;DHT22;42408;53.238;5.686;2023-04-16T11:57:42;11.00;99.90
56512;DHT22;42408;53.238;5.686;2023-04-16T12:00:08;11.00;99.90
56512;DHT22;42408;53.238;5.686;2023-04-16T12:02:48;10.90;99.90
56512;DHT22;42408;53.238;5.686;2023-04-16T12:05:37;10.90;99.90
56512;DHT22;42408;53.238;5.686;2023-04-16T12:08:08;10.90;99.90
56512;DHT22;42408;53.238;5.686;2023-04-16T12:10:52;10.90;99.90
56512;DHT22;42408;53.238;5.686;2023-04-16T12:13:18;11.00;99.90
56512;DHT22;42408;53.238;5.686;2023-04-16T12:15:54;11.00;99.90
56512;DHT22;42408;53.238;5.686;2023-04-16T12:18:22;11.10;99.90
56512;DHT22;42408;53.238;5.686;2023-04-16T12:20:49;11.10;99.90
56512;DHT22;42408;53.238;5.686;2023-04-16T12:23:26;11.20;99.90
56512;DHT22;42408;53.238;5.686;2023-04-16T12:25:52;11.20;99.90
56512;DHT22;42408;53.238;5.686;2023-04-16T12:28:32;11.30;99.90
56512;DHT22;42408;53.238;5.686;2023-04-16T12:30:58;11.30;99.90
56512;DHT22;42408;53.238;5.686;2023-04-16T12:33:25;11.20;99.90
56512;DHT22;42408;53.238;5.686;2023-04-16T12:35:50;11.20;99.90
56512;DHT22;42408;53.238;5.686;2023-04-16T12:38:17;11.20;99.90
56512;DHT22;42408;53.238;5.686;2023-04-16T12:40:43;11.20;99.90
56512;DHT22;42408;53.238;5.686;2023-04-16T12:43:09;11.20;99.90
56512;DHT22;42408;53.238;5.686;2023-04-16T12:45:35;11.10;99.90
56512;DHT22;42408;53.238;5.686;2023-04-16T12:48:01;11.00;99.90
56512;DHT22;42408;53.238;5.686;2023-04-16T12:50:27;11.10;99.90
56512;DHT22;42408;53.238;5.686;2023-04-16T12:52:54;11.20;99.90
56512;DHT22;42408;53.238;5.686;2023-04-16T12:55:20;11.20;99.90
56512;DHT22;42408;53.238;5.686;2023-04-16T12:57:45;11.30;99.90
56512;DHT22;42408;53.238;5.686;2023-04-16T13:00:13;11.40;99.90
56512;DHT22;42408;53.238;5.686;2023-04-16T13:02:39;11.40;99.90
56512;DHT22;42408;53.238;5.686;2023-04-16T13:05:05;11.40;99.90
56512;DHT22;42408;53.238;5.686;2023-04-16T13:07:32;11.40;99.90
56512;DHT22;42408;53.238;5.686;2023-04-16T13:09:59;11.30;99.90
56512;DHT22;42408;53.238;5.686;2023-04-16T13:12:25;11.20;99.90
56512;DHT22;42408;53.238;5.686;2023-04-16T13:14:51;11.30;99.90
56512;DHT22;42408;53.238;5.686;2023-04-16T13:17:17;11.30;99.90
56512;DHT22;42408;53.238;5.686;2023-04-16T13:19:43;11.40;99.90
56512;DHT22;42408;53.238;5.686;2023-04-16T13:22:08;11.40;99.90
56512;DHT22;42408;53.238;5.686;2023-04-16T13:24:34;11.50;99.90
56512;DHT22;42408;53.238;5.686;2023-04-16T13:27:00;11.50;99.90
56512;DHT22;42408;53.238;5.686;2023-04-16T13:29:25;11.60;99.90
56512;DHT22;42408;53.238;5.686;2023-04-16T13:31:51;11.60;99.90
56512;DHT22;42408;53.238;5.686;2023-04-16T13:34:17;11.70;99.90
56512;DHT22;42408;53.238;5.686;2023-04-16T13:36:42;11.70;99.90
56512;DHT22;42408;53.238;5.686;2023-04-16T13:39:08;11.70;99.90
56512;DHT22;42408;53.238;5.686;2023-04-16T13:41:38;11.70;99.90
56512;DHT22;42408;53.238;5.686;2023-04-16T13:44:05;11.60;99.90
56512;DHT22;42408;53.238;5.686;2023-04-16T13:46:31;11.80;99.90
56512;DHT22;42408;53.238;5.686;2023-04-16T13:48:56;11.70;99.90
56512;DHT22;42408;53.238;5.686;2023-04-16T13:51:22;11.70;99.90
56512;DHT22;42408;53.238;5.686;2023-04-16T13:53:48;11.70;99.90
56512;DHT22;42408;53.238;5.686;2023-04-16T13:56:14;11.60;99.90
56512;DHT22;42408;53.238;5.686;2023-04-16T13:58:39;11.60;99.90
56512;DHT22;42408;53.238;5.686;2023-04-16T14:01:06;11.60;99.90
56512;DHT22;42408;53.238;5.686;2023-04-16T14:03:32;11.60;99.90
56512;DHT22;42408;53.238;5.686;2023-04-16T14:06:01;11.60;99.90
56512;DHT22;42408;53.238;5.686;2023-04-16T14:08:26;11.60;99.90
56512;DHT22;42408;53.238;5.686;2023-04-16T14:10:52;11.50;99.90
56512;DHT22;42408;53.238;5.686;2023-04-16T14:13:18;11.50;99.90
56512;DHT22;42408;53.238;5.686;2023-04-16T14:15:43;11.50;99.90
56512;DHT22;42408;53.238;5.686;2023-04-16T14:18:09;11.50;99.90
56512;DHT22;42408;53.238;5.686;2023-04-16T14:20:35;11.50;99.90
56512;DHT22;42408;53.238;5.686;2023-04-16T14:23:00;11.50;99.90
56512;DHT22;42408;53.238;5.686;2023-04-16T14:25:26;11.60;99.90
56512;DHT22;42408;53.238;5.686;2023-04-16T14:27:52;11.50;99.90
56512;DHT22;42408;53.238;5.686;2023-04-16T14:30:18;11.40;99.90
56512;DHT22;42408;53.238;5.686;2023-04-16T14:32:44;11.40;99.90
56512;DHT22;42408;53.238;5.686;2023-04-16T14:35:10;11.50;99.90
56512;DHT22;42408;53.238;5.686;2023-04-16T14:37:35;11.50;99.90
56512;DHT22;42408;53.238;5.686;2023-04-16T14:40:02;11.50;99.90
56512;DHT22;42408;53.238;5.686;2023-04-16T14:42:32;11.50;99.90
56512;DHT22;42408;53.238;5.686;2023-04-16T14:44:58;11.40;99.90
56512;DHT22;42408;53.238;5.686;2023-04-16T14:47:24;11.40;99.90
56512;DHT22;42408;53.238;5.686;2023-04-16T14:49:50;11.40;99.90
56512;DHT22;42408;53.238;5.686;2023-04-16T14:52:15;11.30;99.90
56512;DHT22;42408;53.238;5.686;2023-04-16T14:54:41;11.40;99.90
56512;DHT22;42408;53.238;5.686;2023-04-16T14:57:07;11.40;99.90
56512;DHT22;42408;53.238;5.686;2023-04-16T14:59:32;11.40;99.90
56512;DHT22;42408;53.238;5.686;2023-04-16T15:01:58;11.40;99.90
56512;DHT22;42408;53.238;5.686;2023-04-16T15:04:24;11.40;99.90
56512;DHT22;42408;53.238;5.686;2023-04-16T15:06:50;11.40;99.90
56512;DHT22;42408;53.238;5.686;2023-04-16T15:09:15;11.40;99.90
56512;DHT22;42408;53.238;5.686;2023-04-16T15:11:41;11.40;99.90
56512;DHT22;42408;53.238;5.686;2023-04-16T15:14:06;11.40;99.90
56512;DHT22;42408;53.238;5.686;2023-04-16T15:16:32;11.30;99.90
56512;DHT22;42408;53.238;5.686;2023-04-16T15:18:58;11.20;99.90
56512;DHT22;42408;53.238;5.686;2023-04-16T15:21:24;11.20;99.90
56512;DHT22;42408;53.238;5.686;2023-04-16T15:23:51;11.20;99.90
56512;DHT22;42408;53.238;5.686;2023-04-16T15:26:17;11.20;99.90
56512;DHT22;42408;53.238;5.686;2023-04-16T15:28:42;11.20;99.90
56512;DHT22;42408;53.238;5.686;2023-04-16T15:31:08;11.20;99.90
56512;DHT22;42408;53.238;5.686;2023-04-16T15:33:34;11.20;99.90
56512;DHT22;42408;53.238;5.686;2023-04-16T15:35:59;11.20;99.90
56512;DHT22;42408;53.238;5.686;2023-04-16T15:38:25;11.20;99.90
56512;DHT22;42408;53.238;5.686;2023-04-16T15:40:51;11.00;99.90